KFSO

Details ICAO KFSO
Name FRANKLIN CO STATE
Region United States
Timezone America/New_York (UTC-4.0)
Plans Departing 114
Arriving 121
Stats Elevation 228 ft / 69 m (AMSL)
Location 44.940300° -73.097500°
Runways 1
Magnetic Variation 14.385° W
Sunrise 2019-04-25 09:52:37 UTC / 2019-04-25 05:52:37 Local
Sunset 2019-04-25 23:50:25 UTC / 2019-04-25 19:50:25 Local
Advertisement - Login to hide

Runways

ID Width Length Bearing (true/mag) Surface Threshold Overrun Markings Lighting
01 60 ft / 18 m 3,002 ft / 915 m 349.49° / 3.87° ASPHALT 0 ft / 0 m 0 ft / 0 m APP EDGE THRESHOLD REIL-OMNI
19 60 ft / 18 m 3,002 ft / 915 m 169.49° / 183.87° ASPHALT 0 ft / 0 m 0 ft / 0 m APP EDGE THRESHOLD REIL-OMNI

Map

Weather


0- 5 10 15 20 25 30 35+ Temperature / °C

Clouds and Precipitation
Forecast for 2019-04-25 06:00 UTC. Updated 2 hours ago

Ground ~20,000 ft ~40,000 ft Winds

METAR

KFSO 250535Z AUTO 00000KT 10SM SCT013 OVC021 06/05 A2991 RMK AO2 T00560053

TAF

Not found

Frequencies

Recorded 119.02 MHz AWOS 3
Approach 121.10 MHz BURLINGTON APP/DEP
Unicom 122.80 MHz CTAF/UNICOM
Approach 126.30 MHz BURLINGTON APP/DEP
Warning: Do not use this data for real-world aviation or navigation. No guarantee of current accuracy is given.